NCAR-RAP Real-Time Weather Data

Output produced by METARs form (21 May 2019  11:09 UTC)
found at http://weather.rap.ucar.edu/surface/
 
RJDT 211000Z VRB02KT CAVOK 19/09 Q1006
RJDT 210900Z VRB03KT CAVOK 20/09 Q1006
RJDT 210800Z 27007KT 220V320 CAVOK 21/07 Q1006
RJDT 210700Z 28008KT 230V330 CAVOK 21/07 Q1006
RJDT 210600Z 30009KT 250V340 CAVOK 21/07 Q1007
RJDT 210500Z VRB05KT CAVOK 21/06 Q1007
RJDT 210400Z VRB05KT CAVOK 21/05 Q1007
RJDT 210300Z 32009KT 270V360 CAVOK 21/07 Q1007
RJDT 210200Z 31008KT 230V340 CAVOK 21/05 Q1007
RJDT 210100Z 31011KT 250V340 CAVOK 19/06 Q1008
RJDT 210000Z VRB08KT CAVOK 18/06 Q1008
RJDT 202300Z VRB07KT CAVOK 17/06 Q1008
RJDT 202230Z 30008KT 240V330 CAVOK 17/06 Q1008
RJDT 201100Z 28008KT 180V340 CAVOK 18/09 Q1004
RJDT 201000Z 27015G26KT CAVOK 18/09 Q1003
RJDT 200900Z 27015G27KT 220V310 CAVOK 19/09 Q1002
RJDT 200800Z 27013G26KT 230V320 CAVOK 20/09 Q1002
RJDT 200700Z 27013KT 220V320 9999 FEW025 SCT150 BKN/// 20/11 Q1002
RJDT 200600Z 28006KT 200V320 9999 FEW010 SCT130 BKN150 19/12 Q1003
RJDT 200500Z 27008KT 170V330 9999 FEW007 BKN010 BKN015 19/17 Q1003
RJDT 200400Z 28005KT 220V330 9999 FEW005 BKN010 BKN020 18/17 Q1004
RJDT 200331Z 29006KT 250V320 9999 -SHRA FEW005 BKN008 BKN015 18/17 Q1004 RMK 1ST005 6CU008 7CU015 A2967
RJDT 200300Z 27004KT 210V340 9999 -SHRA FEW007 BKN010 BKN020 19/17 Q1005
RJDT 200200Z VRB02KT 9999 -RA FEW005 SCT015 OVC030 19/18 Q1005
RJDT 200136Z 27005KT 240V300 9999 -SHRA FEW005 SCT008 BKN010 19/18 Q1004 RMK 1ST005 3CU008 7CU010 A2967
RJDT 200111Z 27004KT 210V300 9999 -SHRA FEW005 BKN008 BKN010 19/18 Q1005 RMK 1ST005 5CU008 7CU010 A2969
RJDT 200100Z 25004KT 180V300 9999 FEW005 BKN010 BKN025 19/18 Q1005
RJDT 200000Z 26004KT 190V320 9999 -SHRA FEW005 BKN015 BKN025 20/18 Q1005
RJDT 192300Z VRB01KT 9999 -SHRA FEW005 SCT015 BKN025 19/18 Q1005
RJDT 192230Z VRB02KT 9999 -SHRA FEW005 BKN025 19/18 Q1005
RJDT 191100Z 15006KT 100V210 9999 FEW010 SCT050 19/18 Q1008
RJDT 191000Z 11014KT 9999 FEW010 BKN050 BKN070 20/18 Q1008
RJDT 190900Z 11019KT 9999 FEW010 SCT035 BKN060 20/18 Q1008
RJDT 190800Z 11016KT 9999 -RA FEW015 SCT030 BKN035 20/18 Q1008
RJDT 190700Z 11017KT 9999 -RA FEW015 SCT035 BKN040 20/18 Q1008
RJDT 190600Z 11013KT 9999 FEW015 BKN040 20/18 Q1009
RJDT 190500Z 10014KT 8000 -RA FEW010 SCT035 BKN060 21/19 Q1009
RJDT 190400Z 08005KT 030V140 8000 -RA FEW020 SCT040 BKN050 21/19 Q1009
RJDT 190300Z 12009KT 100V160 9999 FEW020 SCT070 BKN090 22/18 Q1010
RJDT 190200Z 13007KT 100V180 9999 FEW020 BKN090 22/18 Q1010
RJDT 190100Z 13008KT 090V170 9999 FEW020 SCT045 BKN090 22/19 Q1010
RJDT 190000Z 13006KT 100V170 9999 FEW020 BKN090 21/18 Q1011